createdAt,value
2019-02-19T00:02:20.094Z,7.27
2019-02-19T00:04:48.918Z,9.60
2019-02-19T00:07:17.799Z,9.03
2019-02-19T00:09:46.665Z,9.63
2019-02-19T00:12:15.491Z,10.67
2019-02-19T00:14:46.292Z,7.87
2019-02-19T00:17:15.032Z,7.73
2019-02-19T00:19:43.923Z,10.10
2019-02-19T00:22:12.815Z,9.30
2019-02-19T00:24:41.678Z,7.63
2019-02-19T00:27:10.597Z,7.30
2019-02-19T00:29:39.588Z,8.90
2019-02-19T00:32:08.484Z,6.80
2019-02-19T00:34:37.346Z,7.70
2019-02-19T00:37:06.370Z,6.00
2019-02-19T00:39:35.363Z,6.73
2019-02-19T00:42:06.150Z,7.17
2019-02-19T00:44:34.762Z,8.20
2019-02-19T00:47:03.652Z,7.03
2019-02-19T00:49:32.561Z,8.07
2019-02-19T00:52:01.455Z,6.87
2019-02-19T00:54:30.346Z,8.90
2019-02-19T00:57:00.995Z,8.27
2019-02-19T00:59:29.973Z,9.70
2019-02-19T01:01:58.863Z,7.20
2019-02-19T01:04:27.756Z,6.73
2019-02-19T01:06:56.850Z,7.77
2019-02-19T01:09:25.844Z,6.13
2019-02-19T01:11:54.734Z,6.80
2019-02-19T01:14:23.702Z,7.93
2019-02-19T01:16:52.722Z,5.90
2019-02-19T01:19:21.614Z,8.63
2019-02-19T01:21:50.609Z,10.00
2019-02-19T01:24:19.472Z,6.07
2019-02-19T01:26:48.390Z,12.50
2019-02-19T01:29:17.383Z,6.73
2019-02-19T01:31:46.278Z,6.40
2019-02-19T01:34:15.166Z,7.27
2019-02-19T01:36:45.000Z,7.57
2019-02-19T01:39:13.970Z,7.23
2019-02-19T01:41:42.864Z,6.30
2019-02-19T01:44:11.755Z,10.53
2019-02-19T01:46:40.619Z,7.37
2019-02-19T01:49:11.576Z,8.37
2019-02-19T01:51:40.477Z,6.77
2019-02-19T01:54:09.368Z,7.47
2019-02-19T01:56:38.260Z,11.23
2019-02-19T01:59:07.253Z,6.77
2019-02-19T02:01:36.144Z,8.80
2019-02-19T02:04:05.035Z,7.60
2019-02-19T02:06:33.933Z,7.73
2019-02-19T02:09:04.456Z,8.97
2019-02-19T02:11:33.347Z,6.10
2019-02-19T02:14:02.238Z,6.33
2019-02-19T02:16:31.132Z,6.83
2019-02-19T02:19:00.020Z,7.67
2019-02-19T02:21:28.913Z,9.90
2019-02-19T02:23:57.804Z,7.83
2019-02-19T02:26:26.695Z,6.87
2019-02-19T02:28:55.692Z,6.63
2019-02-19T02:31:25.529Z,6.80
2019-02-19T02:33:54.597Z,6.17
2019-02-19T02:36:24.473Z,6.83
2019-02-19T02:38:53.379Z,7.27
2019-02-19T02:41:22.574Z,6.93
2019-02-19T02:43:51.571Z,5.93
2019-02-19T02:46:20.590Z,6.50
2019-02-19T02:48:49.584Z,8.03
2019-02-19T02:51:18.474Z,8.50
2019-02-19T02:53:47.367Z,6.83
2019-02-19T02:56:16.257Z,6.67
2019-02-19T02:58:45.148Z,9.57
2019-02-19T03:01:14.012Z,9.40
2019-02-19T03:03:42.928Z,7.17
2019-02-19T03:06:14.718Z,6.97
2019-02-19T03:08:43.785Z,6.67
2019-02-19T03:11:12.680Z,6.47
2019-02-19T03:13:43.429Z,7.40
2019-02-19T03:16:12.412Z,6.47
2019-02-19T03:18:41.295Z,7.53
2019-02-19T03:21:10.187Z,7.67
2019-02-19T03:23:39.077Z,8.40
2019-02-19T03:26:07.950Z,8.37
2019-02-19T03:28:37.065Z,6.80
2019-02-19T03:31:06.063Z,7.23
2019-02-19T03:33:34.958Z,7.53
2019-02-19T03:36:03.944Z,7.10
2019-02-19T03:38:32.835Z,7.63
2019-02-19T03:41:02.136Z,7.53
2019-02-19T03:43:31.250Z,6.90
2019-02-19T03:46:00.327Z,7.07
2019-02-19T03:48:29.219Z,8.63
2019-02-19T03:50:58.211Z,6.87
2019-02-19T03:53:27.103Z,6.73
2019-02-19T03:55:55.996Z,8.57
2019-02-19T03:58:24.891Z,6.97
2019-02-19T04:00:54.036Z,6.63
2019-02-19T04:03:22.953Z,7.87
2019-02-19T04:05:52.963Z,8.40
2019-02-19T04:08:21.988Z,7.80
2019-02-19T04:10:50.855Z,5.73
2019-02-19T04:13:19.744Z,7.07
2019-02-19T04:15:48.664Z,6.17
2019-02-19T04:18:17.550Z,8.40
2019-02-19T04:20:46.445Z,7.40
2019-02-19T04:23:15.437Z,6.90
2019-02-19T04:25:44.325Z,9.20
2019-02-19T04:28:13.299Z,6.20
2019-02-19T04:30:42.186Z,7.23
2019-02-19T04:33:11.105Z,5.50
2019-02-19T04:35:42.110Z,6.57
2019-02-19T04:38:11.242Z,6.63
2019-02-19T04:40:41.667Z,5.40
2019-02-19T04:43:10.560Z,6.73
2019-02-19T04:45:39.455Z,8.17
2019-02-19T04:48:08.344Z,7.27
2019-02-19T04:50:37.336Z,10.13
2019-02-19T04:53:06.330Z,7.63
2019-02-19T04:55:35.221Z,5.23
2019-02-19T04:58:04.216Z,6.73
2019-02-19T05:00:33.107Z,7.43
2019-02-19T05:03:02.002Z,7.93
2019-02-19T05:05:30.894Z,7.10
2019-02-19T05:07:59.779Z,6.90
2019-02-19T05:10:28.643Z,8.23
2019-02-19T05:12:57.563Z,6.93
2019-02-19T05:15:26.457Z,6.93
2019-02-19T05:17:55.344Z,6.90
2019-02-19T05:20:24.235Z,7.33
2019-02-19T05:22:53.098Z,7.03
2019-02-19T05:25:22.017Z,8.10
2019-02-19T05:27:50.909Z,7.33
2019-02-19T05:30:19.800Z,8.27
2019-02-19T05:32:48.691Z,8.20
2019-02-19T05:35:17.584Z,8.17
2019-02-19T05:37:46.446Z,8.63
2019-02-19T05:40:15.365Z,7.43
2019-02-19T05:42:44.235Z,9.30
2019-02-19T05:45:13.148Z,11.03
2019-02-19T05:47:42.039Z,11.00
2019-02-19T05:50:11.135Z,8.90
2019-02-19T05:52:40.743Z,10.43
2019-02-19T05:55:09.810Z,8.13
2019-02-19T05:57:38.731Z,10.77
2019-02-19T06:00:12.745Z,9.43
2019-02-19T06:02:41.734Z,8.03
2019-02-19T06:05:11.137Z,7.20
2019-02-19T06:07:40.032Z,8.17
2019-02-19T06:10:13.124Z,7.50
2019-02-19T06:12:42.010Z,6.63
2019-02-19T06:15:12.511Z,7.77
2019-02-19T06:17:41.442Z,8.13
2019-02-19T06:20:10.425Z,8.93
2019-02-19T06:22:39.417Z,7.47
2019-02-19T06:25:09.766Z,11.57
2019-02-19T06:27:38.639Z,7.47
2019-02-19T06:30:12.647Z,7.53
2019-02-19T06:32:41.536Z,7.53
2019-02-19T06:35:10.632Z,9.10
2019-02-19T06:37:39.493Z,6.40
2019-02-19T06:40:11.384Z,7.63
2019-02-19T06:42:40.246Z,7.30
2019-02-19T06:45:09.167Z,6.87
2019-02-19T06:47:38.057Z,9.83
2019-02-19T06:50:06.948Z,7.27
2019-02-19T06:52:35.840Z,5.47
2019-02-19T06:55:05.141Z,7.33
2019-02-19T06:57:34.003Z,6.43
2019-02-19T07:00:03.028Z,6.87
2019-02-19T07:02:36.525Z,6.43
2019-02-19T07:05:07.166Z,6.07
2019-02-19T07:07:36.155Z,6.43
2019-02-19T07:10:06.349Z,5.93
2019-02-19T07:12:35.270Z,6.47
2019-02-19T07:15:04.822Z,7.50
2019-02-19T07:17:33.667Z,6.60
2019-02-19T07:20:02.526Z,7.40
2019-02-19T07:22:31.387Z,7.73
2019-02-19T07:25:00.290Z,6.87
2019-02-19T07:27:29.183Z,9.93
2019-02-19T07:29:58.046Z,7.23
2019-02-19T07:32:26.864Z,6.53
2019-02-19T07:34:55.736Z,6.03
2019-02-19T07:37:24.558Z,9.47
2019-02-19T07:39:53.384Z,7.07
2019-02-19T07:42:22.253Z,6.90
2019-02-19T07:44:51.115Z,7.37
2019-02-19T07:47:24.566Z,10.37
2019-02-19T07:49:50.463Z,6.93
2019-02-19T07:52:19.346Z,8.07
2019-02-19T07:54:48.154Z,8.30
2019-02-19T07:57:17.015Z,8.27
2019-02-19T07:59:45.876Z,6.57
2019-02-19T08:02:14.706Z,5.30
2019-02-19T08:04:43.572Z,8.33
2019-02-19T08:07:12.441Z,5.60
2019-02-19T08:09:41.262Z,6.30
2019-02-19T08:12:10.132Z,7.57
2019-02-19T08:14:38.986Z,7.30
2019-02-19T08:17:07.810Z,7.87
2019-02-19T08:19:36.679Z,6.17
2019-02-19T08:22:05.549Z,7.33
2019-02-19T08:24:34.373Z,9.50
2019-02-19T08:27:03.240Z,6.70
2019-02-19T08:29:32.106Z,7.67
2019-02-19T08:32:00.932Z,6.47
2019-02-19T08:34:29.794Z,5.57
2019-02-19T08:36:58.658Z,8.97
2019-02-19T08:39:27.479Z,7.93
2019-02-19T08:41:56.343Z,7.17
2019-02-19T08:44:25.204Z,7.07
2019-02-19T08:46:54.028Z,6.90
2019-02-19T08:49:22.892Z,7.87
2019-02-19T08:51:56.058Z,8.43
2019-02-19T08:54:22.223Z,7.97
2019-02-19T08:56:51.084Z,6.90
2019-02-19T08:59:19.959Z,6.47
2019-02-19T09:01:48.815Z,5.47
2019-02-19T09:04:17.765Z,8.60
2019-02-19T09:06:46.607Z,5.93
2019-02-19T09:09:15.441Z,5.43
2019-02-19T09:11:44.295Z,5.53
2019-02-19T09:14:13.162Z,7.40
2019-02-19T09:16:41.985Z,5.30
2019-02-19T09:19:10.846Z,7.10
2019-02-19T09:21:40.000Z,7.43
2019-02-19T09:24:09.741Z,5.23
2019-02-19T09:26:38.783Z,6.97
2019-02-19T09:29:07.651Z,6.53
2019-02-19T09:31:36.471Z,4.90
2019-02-19T09:34:05.366Z,6.33
2019-02-19T09:36:34.236Z,6.07
2019-02-19T09:39:04.649Z,6.87
2019-02-19T09:41:33.514Z,6.63
2019-02-19T09:44:02.441Z,5.73
2019-02-19T09:46:31.218Z,6.70
2019-02-19T09:49:00.108Z,5.10
2019-02-19T09:51:28.942Z,6.00
2019-02-19T09:53:57.777Z,7.17
2019-02-19T09:56:26.654Z,5.73
2019-02-19T09:58:55.511Z,10.50
2019-02-19T10:01:24.327Z,7.30
2019-02-19T10:03:53.229Z,7.13
2019-02-19T10:06:22.071Z,7.00
2019-02-19T10:08:50.894Z,5.37
2019-02-19T10:11:19.753Z,6.77
2019-02-19T10:13:48.634Z,6.00
2019-02-19T10:16:17.467Z,5.07
2019-02-19T10:18:46.342Z,8.33
2019-02-19T10:21:15.212Z,8.87
2019-02-19T10:23:44.034Z,4.90
2019-02-19T10:26:12.896Z,5.47
2019-02-19T10:28:41.768Z,4.67
2019-02-19T10:31:10.574Z,5.47
2019-02-19T10:33:39.458Z,5.33
2019-02-19T10:36:08.327Z,7.53
2019-02-19T10:38:37.155Z,5.77
2019-02-19T10:41:06.016Z,4.00
2019-02-19T10:43:34.882Z,6.87
2019-02-19T10:46:03.703Z,4.53
2019-02-19T10:48:32.571Z,5.03
2019-02-19T10:51:01.452Z,4.53
2019-02-19T10:53:30.278Z,6.40
2019-02-19T10:55:59.144Z,4.50
2019-02-19T10:58:28.035Z,4.93
2019-02-19T11:00:56.850Z,4.40
2019-02-19T11:03:25.714Z,5.87
2019-02-19T11:05:54.578Z,4.87
2019-02-19T11:08:23.402Z,4.80
2019-02-19T11:10:52.275Z,4.03
2019-02-19T11:13:21.144Z,5.73
2019-02-19T11:15:49.987Z,4.93
2019-02-19T11:18:27.848Z,3.43
2019-02-19T11:20:49.358Z,3.40
2019-02-19T11:23:18.176Z,4.10
2019-02-19T11:25:47.043Z,4.40
2019-02-19T11:28:15.907Z,5.50
2019-02-19T11:30:44.728Z,4.70
2019-02-19T11:33:13.592Z,3.93
2019-02-19T11:35:42.459Z,6.30
2019-02-19T11:38:11.287Z,4.13
2019-02-19T11:40:40.149Z,5.00
2019-02-19T11:43:09.009Z,6.53
2019-02-19T11:45:37.843Z,3.77
2019-02-19T11:48:06.699Z,6.43
2019-02-19T11:50:35.532Z,4.73
2019-02-19T11:53:04.364Z,6.37
2019-02-19T11:55:33.231Z,5.13
2019-02-19T11:58:02.136Z,4.00
2019-02-19T12:00:35.598Z,5.40
2019-02-19T12:03:04.575Z,8.30
2019-02-19T12:05:33.374Z,6.80
2019-02-19T12:08:02.248Z,5.10
2019-02-19T12:10:31.113Z,5.13
2019-02-19T12:12:59.943Z,4.50
2019-02-19T12:15:34.953Z,7.70
2019-02-19T12:17:59.325Z,5.67
2019-02-19T12:20:28.149Z,6.20
2019-02-19T12:22:57.018Z,5.87
2019-02-19T12:25:25.971Z,5.53
2019-02-19T12:27:54.801Z,4.83
2019-02-19T12:30:23.658Z,4.30
2019-02-19T12:32:52.523Z,8.13
2019-02-19T12:35:21.354Z,8.87
2019-02-19T12:37:50.214Z,6.47
2019-02-19T12:40:19.071Z,6.23
2019-02-19T12:42:47.893Z,5.60
2019-02-19T12:45:16.857Z,5.20
2019-02-19T12:47:45.710Z,5.00
2019-02-19T12:50:16.461Z,6.80
2019-02-19T12:52:45.322Z,5.40
2019-02-19T12:55:14.196Z,6.20
2019-02-19T12:57:43.005Z,5.80
2019-02-19T13:00:14.642Z,6.77
2019-02-19T13:02:44.154Z,5.50
2019-02-19T13:05:14.536Z,6.53
2019-02-19T13:07:43.395Z,6.43
2019-02-19T13:10:12.965Z,5.50
2019-02-19T13:12:41.789Z,6.63
2019-02-19T13:15:16.478Z,5.20
2019-02-19T13:17:45.351Z,6.83
2019-02-19T13:20:20.374Z,8.13
2019-02-19T13:22:49.243Z,5.47
2019-02-19T13:25:18.069Z,5.90
2019-02-19T13:27:46.933Z,5.10
2019-02-19T13:30:20.851Z,5.43
2019-02-19T13:32:49.712Z,6.77
2019-02-19T13:35:18.590Z,6.57
2019-02-19T13:37:47.414Z,5.10
2019-02-19T13:40:19.051Z,6.57
2019-02-19T13:42:47.916Z,4.50
2019-02-19T13:45:17.534Z,5.73
2019-02-19T13:47:46.402Z,7.93
2019-02-19T13:50:23.735Z,6.87
2019-02-19T13:52:54.288Z,6.03
2019-02-19T13:55:24.666Z,5.87
2019-02-19T13:57:53.492Z,6.47
2019-02-19T14:00:23.934Z,8.10
2019-02-19T14:02:52.792Z,5.63
2019-02-19T14:05:21.619Z,5.13
2019-02-19T14:07:50.478Z,4.90
2019-02-19T14:10:19.340Z,7.33
2019-02-19T14:12:48.165Z,10.37
2019-02-19T14:15:24.770Z,6.07
2019-02-19T14:17:53.637Z,6.00
2019-02-19T14:20:40.561Z,6.10
2019-02-19T14:23:17.022Z,8.37
2019-02-19T14:26:03.830Z,6.87
2019-02-19T14:28:40.147Z,5.77
2019-02-19T14:31:16.351Z,6.50
2019-02-19T14:34:03.267Z,5.93
2019-02-19T14:36:42.508Z,5.47
2019-02-19T14:39:13.042Z,5.60
2019-02-19T14:41:55.435Z,7.17
2019-02-19T14:44:25.877Z,6.40
2019-02-19T14:47:08.497Z,8.47
2019-02-19T14:49:47.351Z,4.93
2019-02-19T14:52:32.997Z,6.67
2019-02-19T14:55:05.862Z,6.93
2019-02-19T14:57:39.431Z,7.43
2019-02-19T15:00:14.565Z,7.67
2019-02-19T15:02:45.011Z,8.67
2019-02-19T15:05:15.486Z,7.00
2019-02-19T15:08:00.297Z,10.37
2019-02-19T15:10:45.894Z,5.27
2019-02-19T15:13:32.708Z,5.80
2019-02-19T15:16:19.450Z,5.33
2019-02-19T15:18:53.051Z,6.67
2019-02-19T15:21:25.532Z,7.00
2019-02-19T15:24:01.448Z,7.57
2019-02-19T15:26:31.874Z,7.60
2019-02-19T15:29:02.275Z,5.33
2019-02-19T15:31:44.522Z,6.47
2019-02-19T15:34:14.982Z,6.10
2019-02-19T15:37:01.512Z,7.20
2019-02-19T15:39:31.987Z,6.43
2019-02-19T15:42:02.424Z,7.73
2019-02-19T15:44:36.186Z,9.20
2019-02-19T15:47:22.959Z,7.47
2019-02-19T15:49:53.387Z,8.20
2019-02-19T15:52:32.939Z,7.00
2019-02-19T15:55:15.761Z,6.13
2019-02-19T15:57:52.251Z,7.23
2019-02-19T16:00:28.542Z,7.57
2019-02-19T16:02:58.986Z,7.63
2019-02-19T16:05:32.170Z,9.90
2019-02-19T16:08:05.362Z,7.90
2019-02-19T16:10:48.073Z,6.90
2019-02-19T16:13:21.235Z,8.80
2019-02-19T16:16:19.161Z,7.57
2019-02-19T16:18:58.795Z,8.03
2019-02-19T16:21:29.248Z,7.63
2019-02-19T16:24:02.667Z,8.00
2019-02-19T16:26:49.647Z,8.13
2019-02-19T16:29:36.351Z,7.93
2019-02-19T16:32:15.524Z,10.13
2019-02-19T16:34:54.976Z,8.90
2019-02-19T16:37:28.395Z,6.03
2019-02-19T16:39:58.862Z,8.07
2019-02-19T16:42:41.259Z,8.77
2019-02-19T16:45:14.648Z,8.10
2019-02-19T16:47:53.819Z,7.33
2019-02-19T16:50:27.279Z,9.00
2019-02-19T16:53:00.792Z,7.73
2019-02-19T16:55:37.243Z,7.43
2019-02-19T16:58:23.743Z,9.07
2019-02-19T17:01:09.287Z,8.33
2019-02-19T17:03:39.738Z,7.33
2019-02-19T17:06:27.843Z,8.17
2019-02-19T17:09:00.364Z,7.53
2019-02-19T17:11:33.418Z,9.13
2019-02-19T17:14:09.633Z,7.63
2019-02-19T17:16:46.231Z,8.20
2019-02-19T17:19:25.751Z,7.60
2019-02-19T17:22:11.304Z,8.67
2019-02-19T17:24:41.737Z,7.53
2019-02-19T17:27:21.396Z,8.20
2019-02-19T17:30:04.177Z,7.20
2019-02-19T17:32:49.757Z,7.77
2019-02-19T17:35:20.296Z,6.30
2019-02-19T17:37:59.532Z,7.57
2019-02-19T17:40:35.703Z,6.77
2019-02-19T17:43:09.094Z,8.57
2019-02-19T17:45:48.325Z,6.20
2019-02-19T17:48:18.738Z,7.03
2019-02-19T17:51:05.419Z,9.97
2019-02-19T17:53:41.791Z,7.67
2019-02-19T17:56:18.197Z,8.00
2019-02-19T17:58:51.455Z,8.43
2019-02-19T18:01:21.899Z,7.77
2019-02-19T18:03:52.296Z,9.17
2019-02-19T18:06:34.791Z,5.90
2019-02-19T18:09:06.225Z,7.90
2019-02-19T18:11:39.220Z,6.80
2019-02-19T18:14:12.378Z,7.33
2019-02-19T18:16:42.822Z,8.60
2019-02-19T18:19:11.851Z,7.40
2019-02-19T18:21:41.895Z,7.67
2019-02-19T18:24:10.866Z,8.47
2019-02-19T18:26:39.733Z,7.53
2019-02-19T18:29:08.560Z,9.57
2019-02-19T18:31:37.433Z,7.23
2019-02-19T18:34:12.055Z,7.80
2019-02-19T18:36:40.923Z,10.30
2019-02-19T18:39:09.785Z,7.83
2019-02-19T18:41:38.612Z,8.23
2019-02-19T18:44:07.479Z,10.63
2019-02-19T18:46:36.348Z,13.47
2019-02-19T18:49:05.172Z,8.83
2019-02-19T18:51:34.027Z,8.03
2019-02-19T18:54:02.894Z,12.87
2019-02-19T18:56:31.724Z,10.33
2019-02-19T18:59:00.607Z,10.50
2019-02-19T19:01:29.449Z,9.60
2019-02-19T19:03:58.279Z,8.03
2019-02-19T19:06:27.135Z,8.30
2019-02-19T19:08:56.047Z,10.73
2019-02-19T19:11:24.860Z,8.90
2019-02-19T19:13:53.719Z,9.03
2019-02-19T19:16:22.606Z,8.33
2019-02-19T19:18:51.440Z,8.73
2019-02-19T19:21:20.296Z,8.23
2019-02-19T19:23:49.164Z,9.43
2019-02-19T19:26:17.988Z,10.70
2019-02-19T19:28:46.859Z,9.80
2019-02-19T19:31:15.718Z,8.37
2019-02-19T19:33:44.564Z,10.60
2019-02-19T19:36:13.414Z,10.13
2019-02-19T19:38:42.313Z,8.50
2019-02-19T19:41:11.245Z,7.50
2019-02-19T19:43:40.291Z,8.43
2019-02-19T19:46:09.650Z,10.57
2019-02-19T19:48:38.711Z,7.87
2019-02-19T19:51:16.898Z,12.33
2019-02-19T19:53:38.477Z,7.70
2019-02-19T19:56:09.229Z,9.47
2019-02-19T19:58:38.304Z,9.23
2019-02-19T20:01:08.976Z,7.50
2019-02-19T20:03:38.002Z,8.87
2019-02-19T20:06:07.242Z,9.07
2019-02-19T20:08:36.335Z,7.57
2019-02-19T20:11:05.640Z,9.00
2019-02-19T20:13:34.694Z,10.27
2019-02-19T20:16:06.611Z,11.50
2019-02-19T20:18:39.218Z,8.17
2019-02-19T20:21:06.444Z,10.80
2019-02-19T20:23:35.501Z,10.97
2019-02-19T20:26:04.514Z,8.87
2019-02-19T20:28:33.662Z,10.53
2019-02-19T20:31:02.597Z,13.80
2019-02-19T20:33:31.490Z,8.90
2019-02-19T20:36:00.498Z,11.30
2019-02-19T20:38:29.448Z,10.57
2019-02-19T20:40:58.615Z,9.30
2019-02-19T20:43:30.005Z,10.37
2019-02-19T20:45:59.100Z,11.23
2019-02-19T20:48:28.654Z,9.47
2019-02-19T20:50:57.819Z,11.87
2019-02-19T20:53:26.778Z,12.10
2019-02-19T20:55:55.869Z,10.70
2019-02-19T20:58:24.874Z,11.93
2019-02-19T21:00:54.915Z,10.10
2019-02-19T21:03:24.083Z,11.37
2019-02-19T21:05:53.609Z,11.53
2019-02-19T21:08:22.451Z,11.17
2019-02-19T21:10:51.314Z,10.50
2019-02-19T21:13:20.255Z,14.47
2019-02-19T21:15:49.094Z,13.53
2019-02-19T21:18:18.088Z,11.60
2019-02-19T21:20:47.041Z,12.17
2019-02-19T21:23:15.973Z,13.23
2019-02-19T21:25:44.857Z,13.37
2019-02-19T21:28:13.895Z,11.23
2019-02-19T21:30:42.783Z,11.30
2019-02-19T21:33:11.649Z,13.10
2019-02-19T21:35:40.525Z,12.83
2019-02-19T21:38:09.342Z,13.40
2019-02-19T21:40:38.211Z,11.53
2019-02-19T21:43:07.084Z,12.80
2019-02-19T21:45:35.903Z,12.27
2019-02-19T21:48:04.871Z,13.63
2019-02-19T21:50:33.755Z,16.07
2019-02-19T21:53:02.578Z,12.97
2019-02-19T21:55:31.448Z,10.50
2019-02-19T21:58:00.325Z,12.90
2019-02-19T22:00:29.148Z,13.00
2019-02-19T22:02:58.020Z,10.17
2019-02-19T22:05:26.880Z,12.03
2019-02-19T22:07:55.711Z,10.93
2019-02-19T22:10:24.566Z,10.57
2019-02-19T22:12:53.430Z,10.67
2019-02-19T22:15:22.255Z,10.13
2019-02-19T22:17:51.110Z,14.20
2019-02-19T22:20:39.451Z,11.10
2019-02-19T22:23:08.716Z,10.90
2019-02-19T22:25:37.587Z,10.90
2019-02-19T22:28:06.413Z,13.07
2019-02-19T22:30:35.276Z,11.93
2019-02-19T22:33:04.143Z,13.17
2019-02-19T22:35:32.965Z,12.50
2019-02-19T22:38:01.840Z,10.20
2019-02-19T22:40:30.710Z,12.57
2019-02-19T22:42:59.530Z,11.90
2019-02-19T22:45:28.399Z,12.07
2019-02-19T22:47:57.262Z,13.37
2019-02-19T22:50:26.084Z,12.37
2019-02-19T22:52:55.883Z,10.73
2019-02-19T22:55:35.015Z,11.03
2019-02-19T22:58:03.871Z,12.73
2019-02-19T23:00:49.597Z,11.87
2019-02-19T23:03:20.027Z,13.80
2019-02-19T23:05:48.891Z,12.17
2019-02-19T23:08:17.723Z,14.30
2019-02-19T23:10:46.593Z,12.53
2019-02-19T23:13:16.054Z,13.60
2019-02-19T23:15:44.892Z,13.03
2019-02-19T23:18:13.752Z,13.10
2019-02-19T23:20:42.614Z,13.73
2019-02-19T23:23:11.438Z,13.87
2019-02-19T23:25:40.304Z,13.80
2019-02-19T23:28:09.162Z,13.80
2019-02-19T23:30:37.990Z,12.53
2019-02-19T23:33:06.854Z,14.33
2019-02-19T23:35:46.399Z,14.77
2019-02-19T23:38:15.259Z,17.47
2019-02-19T23:40:44.127Z,15.40
2019-02-19T23:43:12.964Z,18.00
2019-02-19T23:45:41.835Z,17.10
2019-02-19T23:48:10.690Z,15.33
2019-02-19T23:50:39.527Z,14.37
2019-02-19T23:53:08.390Z,15.47
2019-02-19T23:55:37.246Z,15.27
2019-02-19T23:58:06.080Z,17.03
